Time;durP1;ratioP1;P1;durP2;ratioP2;P2;SDS_P1;SDS_P2;PMS_P1;PMS_P2;Temp;Humidity;BMP_temperature;BMP_pressure;BME280_temperature;BME280_humidity;BME280_pressure;Samples;Min_cycle;Max_cycle;Signal;HPM_P1;HPM_P2
2022/04/07 00:01:44;;;;;;;20.17;18.30;;;;;;;7.34;95.46;98675.91;5054044;28;21334;-42
2022/04/07 00:04:13;;;;;;;20.10;18.27;;;;;;;7.31;95.71;98676.34;5054323;28;20435;-44
2022/04/07 00:06:42;;;;;;;19.40;17.90;;;;;;;7.33;95.07;98684.06;5053892;28;20906;-41
2022/04/07 00:09:09;;;;;;;18.70;17.57;;;;;;;7.34;95.46;98667.13;5054619;28;20433;-42
2022/04/07 00:11:37;;;;;;;19.13;17.77;;;;;;;7.33;95.62;98668.16;5054034;28;20454;-43
2022/04/07 00:14:05;;;;;;;20.07;18.13;;;;;;;7.30;95.47;98666.78;5054324;28;20431;-42
2022/04/07 00:16:32;;;;;;;19.30;17.80;;;;;;;7.30;95.30;98658.00;5053559;28;20463;-42
2022/04/07 00:19:00;;;;;;;19.93;18.43;;;;;;;7.29;95.16;98659.06;5054318;28;20431;-42
2022/04/07 00:21:35;;;;;;;18.70;17.53;;;;;;;7.31;94.83;98646.38;5053837;28;20466;-42
2022/04/07 00:24:06;;;;;;;19.90;18.30;;;;;;;7.32;95.48;98648.00;5054104;28;20438;-42
2022/04/07 00:26:35;;;;;;;38.20;19.57;;;;;;;7.32;95.02;98650.66;5053401;28;20475;-42
2022/04/07 00:29:03;;;;;;;19.67;17.93;;;;;;;7.31;94.22;98638.44;5053805;28;20914;-41
2022/04/07 00:31:38;;;;;;;20.47;18.60;;;;;;;7.33;94.06;98646.94;5053933;28;20454;-43
2022/04/07 00:34:09;;;;;;;20.67;18.87;;;;;;;7.35;93.81;98632.44;5054094;28;20431;-41
2022/04/07 00:36:37;;;;;;;19.47;17.87;;;;;;;7.36;94.29;98635.91;5053500;28;20463;-43
2022/04/07 00:39:06;;;;;;;19.67;18.03;;;;;;;7.39;94.50;98632.78;5053863;28;20431;-41
2022/04/07 00:41:37;;;;;;;18.37;17.17;;;;;;;7.42;95.09;98627.03;5053433;28;20462;-42
2022/04/07 00:44:08;;;;;;;20.80;18.80;;;;;;;7.42;95.40;98614.59;5053878;28;20481;-42
2022/04/07 00:46:36;;;;;;;20.00;18.30;;;;;;;7.43;95.12;98607.44;5043619;28;20522;-45
2022/04/07 00:49:04;;;;;;;20.17;18.67;;;;;;;7.46;95.15;98604.34;5053252;28;20524;-43
2022/04/07 00:51:31;;;;;;;19.80;18.57;;;;;;;7.46;95.60;98607.81;5052533;28;20460;-42
2022/04/07 00:53:59;;;;;;;20.63;19.20;;;;;;;7.46;95.54;98591.09;5053576;28;20431;-42
2022/04/07 00:56:28;;;;;;;20.67;19.23;;;;;;;7.45;95.41;98594.75;5053014;28;20466;-43
2022/04/07 00:58:56;;;;;;;21.23;19.40;;;;;;;7.49;95.07;98577.38;5053488;28;20939;-43
2022/04/07 01:01:27;;;;;;;22.10;20.43;;;;;;;7.52;95.30;98582.22;5053225;28;20462;-42
2022/04/07 01:03:55;;;;;;;25.10;20.67;;;;;;;7.53;95.68;98568.72;5053360;28;20434;-42
2022/04/07 01:06:23;;;;;;;20.73;19.50;;;;;;;7.51;95.99;98576.09;5052664;28;20467;-42
2022/04/07 01:08:51;;;;;;;23.00;21.50;;;;;;;7.51;95.66;98569.97;5053265;28;20475;-42
2022/04/07 01:11:19;;;;;;;22.50;20.17;;;;;;;7.49;95.97;98551.66;5052751;28;21032;-42
2022/04/07 01:13:50;;;;;;;20.87;19.37;;;;;;;7.46;96.30;98556.59;5052976;28;20436;-42
2022/04/07 01:16:18;;;;;;;20.93;19.63;;;;;;;7.44;95.98;98553.34;5052637;28;20463;-43
2022/04/07 01:18:47;;;;;;;20.60;19.50;;;;;;;7.40;95.74;98537.13;5052889;28;20535;-42
2022/04/07 01:21:16;;;;;;;20.47;19.10;;;;;;;7.38;95.46;98538.38;5053060;28;20463;-45
2022/04/07 01:23:55;;;;;;;19.33;18.43;;;;;;;7.35;95.55;98533.53;5053053;28;20431;-43
2022/04/07 01:26:26;;;;;;;19.63;18.60;;;;;;;7.34;96.13;98531.91;5052449;28;20459;-46
2022/04/07 01:28:53;;;;;;;19.50;18.60;;;;;;;7.30;95.95;98520.97;5052725;28;21027;-42
2022/04/07 01:31:21;;;;;;;18.67;17.57;;;;;;;7.29;95.92;98524.63;5052367;28;20470;-45
2022/04/07 01:33:49;;;;;;;17.90;17.00;;;;;;;7.29;96.07;98519.34;5052812;28;20437;-42
2022/04/07 01:36:17;;;;;;;17.53;16.83;;;;;;;7.28;96.63;98527.53;5052334;28;20463;-42
2022/04/07 01:38:45;;;;;;;19.00;18.10;;;;;;;7.24;96.65;98528.00;5052767;28;20427;-45
2022/04/07 01:41:13;;;;;;;19.63;18.93;;;;;;;7.24;95.87;98527.19;5052183;28;20458;-43
2022/04/07 01:43:43;;;;;;;18.60;17.70;;;;;;;7.23;95.90;98536.97;5052553;28;20435;-41
2022/04/07 01:46:12;;;;;;;18.57;17.80;;;;;;;7.22;95.77;98529.25;5045966;28;20463;-42
2022/04/07 01:48:42;;;;;;;19.67;18.60;;;;;;;7.21;95.64;98522.34;5048570;28;21036;-45
2022/04/07 01:51:12;;;;;;;18.20;17.60;;;;;;;7.19;95.65;98504.03;5052160;28;20463;-42
2022/04/07 01:53:40;;;;;;;19.27;18.20;;;;;;;7.18;95.58;98498.94;5052478;28;20492;-43
2022/04/07 01:56:09;;;;;;;19.20;18.40;;;;;;;7.15;95.78;98491.44;5051966;28;20827;-42
2022/04/07 01:58:38;;;;;;;18.87;17.80;;;;;;;7.14;95.57;98492.47;5052034;28;20431;-41
2022/04/07 02:01:07;;;;;;;20.13;18.97;;;;;;;7.14;95.49;98479.22;5052261;28;20443;-42
2022/04/07 02:03:34;;;;;;;19.20;18.30;;;;;;;7.15;95.02;98488.78;5051381;28;20439;-41
2022/04/07 02:06:13;;;;;;;19.73;18.70;;;;;;;7.12;94.42;98465.38;5051756;28;20490;-42
2022/04/07 02:08:40;;;;;;;20.13;19.13;;;;;;;7.11;94.44;98467.22;5051919;28;20471;-42
2022/04/07 02:11:10;;;;;;;20.10;19.20;;;;;;;7.08;94.16;98462.38;5051683;28;20455;-42
2022/04/07 02:13:39;;;;;;;21.13;20.23;;;;;;;7.10;93.67;98452.38;5052051;28;20489;-43
2022/04/07 02:16:09;;;;;;;19.77;18.97;;;;;;;7.08;93.54;98443.84;5051623;28;20474;-43
2022/04/07 02:18:38;;;;;;;19.70;18.90;;;;;;;7.08;92.66;98432.44;5052038;28;20423;-42
2022/04/07 02:21:06;;;;;;;20.97;19.80;;;;;;;7.10;91.78;98433.84;5051641;28;20826;-41
2022/04/07 02:23:41;;;;;;;21.23;20.37;;;;;;;7.11;91.71;98435.44;5051904;28;21000;-42
2022/04/07 02:26:11;;;;;;;21.80;20.63;;;;;;;7.12;91.09;98426.44;5051563;28;20473;-41
2022/04/07 02:28:39;;;;;;;21.50;20.53;;;;;;;7.15;91.00;98417.22;5051865;28;20471;-43
2022/04/07 02:31:08;;;;;;;21.43;20.40;;;;;;;7.19;91.07;98402.50;5051730;28;20455;-42
2022/04/07 02:33:36;;;;;;;21.27;20.27;;;;;;;7.20;90.84;98398.78;5051920;28;20434;-42
2022/04/07 02:36:05;;;;;;;21.00;19.77;;;;;;;7.21;90.75;98395.91;5051232;28;20993;-42
2022/04/07 02:38:33;;;;;;;21.73;20.83;;;;;;;7.23;90.45;98396.47;5051559;28;20435;-44
2022/04/07 02:41:00;;;;;;;23.60;22.03;;;;;;;7.24;90.49;98382.19;5051571;28;20459;-42
2022/04/07 02:43:28;;;;;;;23.70;22.23;;;;;;;7.26;90.11;98379.28;5051734;28;20442;-42
2022/04/07 02:45:56;;;;;;;25.87;24.40;;;;;;;7.30;89.66;98382.28;5047155;28;20463;-42
2022/04/07 02:48:25;;;;;;;25.63;24.23;;;;;;;7.31;89.68;98384.72;5045607;28;21005;-42
2022/04/07 02:50:53;;;;;;;25.97;24.60;;;;;;;7.34;88.95;98370.19;5051076;28;21183;-41
2022/04/07 02:53:20;;;;;;;29.50;27.40;;;;;;;7.36;87.49;98358.31;5051470;28;20423;-41
2022/04/07 02:55:48;;;;;;;30.37;28.40;;;;;;;7.40;86.56;98356.81;5051153;28;20826;-41
2022/04/07 02:58:15;;;;;;;30.20;28.30;;;;;;;7.44;84.97;98346.53;5051439;28;20449;-42
2022/04/07 03:00:43;;;;;;;32.57;30.03;;;;;;;7.50;83.53;98340.28;5051067;28;21148;-43
2022/04/07 03:03:11;;;;;;;33.43;31.00;;;;;;;7.54;80.94;98336.13;5051347;28;20431;-41
2022/04/07 03:05:40;;;;;;;34.70;31.93;;;;;;;7.58;79.51;98327.50;5051032;28;20487;-43
2022/04/07 03:08:08;;;;;;;33.60;31.37;;;;;;;7.63;77.36;98316.16;5051368;28;20471;-45
2022/04/07 03:10:35;;;;;;;35.87;33.17;;;;;;;7.67;76.28;98315.47;5051162;28;20446;-44
2022/04/07 03:13:03;;;;;;;34.17;31.73;;;;;;;7.69;75.12;98318.66;5051363;28;20472;-43
2022/04/07 03:15:31;;;;;;;33.40;31.10;;;;;;;7.75;76.01;98317.72;5052379;28;20459;-42
2022/04/07 03:17:58;;;;;;;33.40;31.20;;;;;;;7.79;77.19;98297.63;5055423;28;20430;-42
2022/04/07 03:20:26;;;;;;;34.83;32.00;;;;;;;7.82;78.30;98305.09;5055188;28;20438;-42
2022/04/07 03:22:55;;;;;;;32.47;29.97;;;;;;;7.86;79.39;98294.00;5055181;28;20435;-42
2022/04/07 03:25:22;;;;;;;33.13;30.90;;;;;;;7.88;80.67;98295.41;5054830;28;20459;-42
2022/04/07 03:27:50;;;;;;;32.30;30.27;;;;;;;7.89;81.53;98281.09;5055007;28;20435;-43
2022/04/07 03:30:18;;;;;;;33.40;31.13;;;;;;;7.93;81.98;98287.53;5054625;28;21045;-42
2022/04/07 03:32:45;;;;;;;31.73;29.70;;;;;;;7.95;82.88;98282.78;5054969;28;20427;-43
2022/04/07 03:35:13;;;;;;;33.93;31.70;;;;;;;7.95;84.19;98279.31;5054594;28;20485;-42
2022/04/07 03:37:41;;;;;;;31.80;29.80;;;;;;;7.95;85.06;98272.16;5054903;28;20433;-44
2022/04/07 03:40:12;;;;;;;31.53;29.33;;;;;;;7.96;85.81;98272.97;5054925;28;20438;-44
2022/04/07 03:42:42;;;;;;;30.50;28.60;;;;;;;7.95;86.17;98260.75;5054736;28;20802;-43
2022/04/07 03:45:10;;;;;;;31.17;29.17;;;;;;;7.96;86.64;98265.81;5052559;28;20455;-41
2022/04/07 03:47:38;;;;;;;31.20;29.23;;;;;;;7.98;86.64;98252.31;5046270;28;20423;-42
2022/04/07 03:50:07;;;;;;;32.03;30.10;;;;;;;7.98;88.02;98247.00;5050183;28;20553;-42
2022/04/07 03:52:35;;;;;;;31.37;29.57;;;;;;;7.95;88.88;98245.63;5042181;28;20455;-42
2022/04/07 03:55:03;;;;;;;31.73;29.83;;;;;;;7.97;89.48;98235.59;5044414;28;20463;-43
2022/04/07 03:57:32;;;;;;;29.70;28.20;;;;;;;7.98;90.01;98242.50;5054128;28;20870;-41
2022/04/07 04:00:00;;;;;;;30.67;28.47;;;;;;;7.96;90.46;98231.31;5054384;28;20434;-43
2022/04/07 04:02:27;;;;;;;29.33;26.97;;;;;;;7.98;90.81;98221.25;5054100;28;20455;-43
2022/04/07 04:04:55;;;;;;;26.57;24.97;;;;;;;8.00;91.59;98218.38;5054034;28;20834;-45
2022/04/07 04:07:22;;;;;;;26.90;25.30;;;;;;;8.01;92.34;98214.66;5054342;28;20530;-43
2022/04/07 04:09:50;;;;;;;26.30;24.77;;;;;;;8.02;92.92;98216.28;5054103;28;20467;-45
2022/04/07 04:12:18;;;;;;;25.73;24.07;;;;;;;8.01;93.51;98204.84;5054196;28;20457;-42
2022/04/07 04:14:47;;;;;;;26.03;24.43;;;;;;;8.01;94.03;98204.84;5053852;28;20435;-42
2022/04/07 04:17:14;;;;;;;27.10;25.50;;;;;;;8.03;94.29;98194.81;5054275;28;20431;-42
2022/04/07 04:19:42;;;;;;;25.70;24.30;;;;;;;8.05;94.58;98205.19;5054185;28;20458;-42
2022/04/07 04:22:09;;;;;;;26.93;25.23;;;;;;;8.05;95.00;98200.69;5053590;28;20452;-42
2022/04/07 04:24:37;;;;;;;24.80;23.50;;;;;;;8.02;94.64;98193.22;5053731;28;21148;-46
2022/04/07 04:27:05;;;;;;;24.63;23.23;;;;;;;7.99;95.36;98185.72;5052885;28;20420;-41
2022/04/07 04:29:33;;;;;;;25.00;23.60;;;;;;;8.00;94.55;98187.34;5054055;28;20842;-41
2022/04/07 04:32:02;;;;;;;24.43;22.73;;;;;;;8.00;94.71;98181.22;5053755;28;20463;-41
2022/04/07 04:34:29;;;;;;;24.87;23.37;;;;;;;7.94;95.22;98168.94;5053476;28;20431;-44
2022/04/07 04:36:57;;;;;;;23.00;21.60;;;;;;;7.90;95.65;98163.28;5053672;28;20427;-43
2022/04/07 04:39:30;;;;;;;23.17;22.00;;;;;;;7.87;95.46;98166.44;5053918;28;20850;-43
2022/04/07 04:41:57;;;;;;;21.13;20.23;;;;;;;7.84;96.05;98152.84;5053347;28;20462;-43
2022/04/07 04:44:25;;;;;;;22.10;20.93;;;;;;;7.84;96.48;98152.84;5053586;28;20432;-41
2022/04/07 04:46:53;;;;;;;20.70;19.80;;;;;;;7.78;97.00;98144.00;5042966;28;20815;-42
2022/04/07 04:49:21;;;;;;;21.97;21.00;;;;;;;7.77;97.39;98140.53;5053393;28;20483;-43
2022/04/07 04:51:49;;;;;;;20.33;19.53;;;;;;;7.75;97.63;98139.97;5053038;28;20982;-42
2022/04/07 04:54:17;;;;;;;21.43;19.93;;;;;;;7.76;97.91;98130.97;5053591;28;20439;-42
2022/04/07 04:56:44;;;;;;;21.70;20.50;;;;;;;7.76;97.75;98127.53;5052856;28;20993;-43
2022/04/07 04:59:12;;;;;;;21.23;20.13;;;;;;;7.82;97.67;98133.72;5053388;28;20427;-42
2022/04/07 05:01:39;;;;;;;22.67;21.67;;;;;;;7.82;97.71;98118.59;5053084;28;20822;-41
2022/04/07 05:04:07;;;;;;;21.13;20.23;;;;;;;7.82;97.64;98108.00;5053204;28;20481;-42
2022/04/07 05:06:36;;;;;;;21.33;20.23;;;;;;;7.82;97.96;98108.78;5052686;28;20541;-41
2022/04/07 05:09:04;;;;;;;20.20;19.30;;;;;;;7.85;97.76;98098.75;5052979;28;20471;-41
2022/04/07 05:11:33;;;;;;;19.87;18.97;;;;;;;7.86;97.82;98100.31;5052941;28;20592;-41
2022/04/07 05:14:01;;;;;;;19.90;19.03;;;;;;;7.87;97.84;98097.44;5053154;28;20427;-43
2022/04/07 05:16:28;;;;;;;19.63;18.63;;;;;;;7.90;97.97;98094.31;5052542;28;20833;-41
2022/04/07 05:18:56;;;;;;;19.30;18.33;;;;;;;7.94;98.29;98095.44;5053151;28;20441;-41
2022/04/07 05:21:24;;;;;;;19.30;18.33;;;;;;;7.99;97.98;98092.84;5052793;28;20458;-41
2022/04/07 05:23:53;;;;;;;18.80;17.90;;;;;;;7.99;98.70;98086.72;5052999;28;20534;-42
2022/04/07 05:26:20;;;;;;;18.10;17.30;;;;;;;8.01;99.12;98077.47;5052307;28;20474;-42
2022/04/07 05:28:48;;;;;;;18.20;17.50;;;;;;;8.02;99.87;98078.28;5052764;28;20437;-41
2022/04/07 05:31:15;;;;;;;18.90;17.90;;;;;;;7.98;99.90;98072.66;5052880;28;20462;-41
2022/04/07 05:33:43;;;;;;;18.30;17.60;;;;;;;8.01;100.00;98058.09;5052587;28;20923;-42
2022/04/07 05:36:11;;;;;;;19.30;18.13;;;;;;;8.04;100.00;98052.28;5052147;28;20467;-42
2022/04/07 05:38:38;;;;;;;20.30;19.10;;;;;;;8.02;100.00;98059.69;5052522;28;20431;-44
2022/04/07 05:41:07;;;;;;;18.33;17.53;;;;;;;7.98;100.00;98051.41;5052240;28;20454;-41
2022/04/07 05:43:35;;;;;;;20.33;19.17;;;;;;;7.97;100.00;98047.19;5052498;28;20432;-42
2022/04/07 05:46:03;;;;;;;18.63;17.43;;;;;;;7.98;100.00;98045.31;5047121;28;20468;-42
2022/04/07 05:48:31;;;;;;;17.90;17.10;;;;;;;8.01;100.00;98039.50;5047286;28;20437;-41
2022/04/07 05:50:59;;;;;;;17.50;16.80;;;;;;;8.05;99.99;98030.03;5052049;28;20486;-41
2022/04/07 05:53:27;;;;;;;17.47;16.83;;;;;;;8.08;100.00;98024.22;5052313;28;20441;-42
2022/04/07 05:55:57;;;;;;;19.10;17.97;;;;;;;8.14;99.86;98010.78;5051754;28;20830;-41
2022/04/07 05:58:26;;;;;;;19.23;17.80;;;;;;;8.21;99.90;97998.09;5052408;28;20522;-41
2022/04/07 06:00:54;;;;;;;17.77;16.87;;;;;;;8.33;100.00;97987.41;5052031;28;20465;-42
2022/04/07 06:03:21;;;;;;;19.67;18.60;;;;;;;8.45;100.00;97989.91;5052193;28;20427;-41
2022/04/07 06:05:52;;;;;;;20.13;18.83;;;;;;;8.49;100.00;97975.06;5051675;28;20474;-41
2022/04/07 06:08:21;;;;;;;20.10;18.90;;;;;;;8.44;100.00;97970.53;5051949;28;20930;-42
2022/04/07 06:10:49;;;;;;;19.60;18.23;;;;;;;8.51;100.00;97962.34;5051576;28;20479;-41
2022/04/07 06:13:16;;;;;;;19.40;18.10;;;;;;;8.58;100.00;97947.81;5052145;28;20429;-42
2022/04/07 06:15:46;;;;;;;19.90;18.70;;;;;;;8.60;100.00;97931.63;5051525;28;20475;-46
2022/04/07 06:18:14;;;;;;;18.50;17.50;;;;;;;8.61;100.00;97911.97;5051909;28;20439;-41
2022/04/07 06:20:41;;;;;;;20.93;19.73;;;;;;;8.65;100.00;97926.34;5051587;28;20459;-41
2022/04/07 06:23:09;;;;;;;20.40;19.20;;;;;;;8.66;100.00;97922.66;5051743;28;20437;-43
2022/04/07 06:25:37;;;;;;;18.87;17.80;;;;;;;8.63;100.00;97918.63;5051753;28;20463;-43
2022/04/07 06:28:05;;;;;;;20.17;18.80;;;;;;;8.58;100.00;97899.19;5051673;28;20447;-44
2022/04/07 06:30:33;;;;;;;20.07;18.77;;;;;;;8.63;100.00;97905.34;5051450;28;20478;-43
2022/04/07 06:33:02;;;;;;;19.53;18.47;;;;;;;8.62;100.00;97902.97;5051728;28;20431;-44
2022/04/07 06:35:29;;;;;;;20.37;19.27;;;;;;;8.51;100.00;97888.78;5051157;28;20471;-43
2022/04/07 06:37:57;;;;;;;19.50;18.60;;;;;;;8.48;100.00;97891.16;5051615;28;21231;-44
2022/04/07 06:40:26;;;;;;;20.40;19.00;;;;;;;8.41;100.00;97872.75;5051434;28;20434;-43
2022/04/07 06:42:56;;;;;;;20.47;19.30;;;;;;;8.45;100.00;97884.50;5051730;28;20430;-44
2022/04/07 06:45:25;;;;;;;19.50;18.37;;;;;;;8.43;100.00;97891.09;5049058;28;20467;-41
2022/04/07 06:47:53;;;;;;;21.97;20.80;;;;;;;8.40;100.00;97871.16;5043137;28;20942;-43
2022/04/07 06:50:23;;;;;;;21.17;20.03;;;;;;;8.36;100.00;97870.06;5054525;28;20471;-43
2022/04/07 06:52:52;;;;;;;22.23;20.93;;;;;;;8.35;100.00;97868.47;5058367;28;20484;-44
2022/04/07 06:55:20;;;;;;;22.77;21.23;;;;;;;8.32;100.00;97869.78;5057753;28;20473;-45
2022/04/07 06:57:51;;;;;;;21.37;20.00;;;;;;;8.29;100.00;97851.69;5058209;28;20431;-42
2022/04/07 07:00:20;;;;;;;21.70;20.40;;;;;;;8.26;100.00;97833.56;5057796;28;20443;-42
2022/04/07 07:02:48;;;;;;;20.37;19.07;;;;;;;8.21;100.00;97840.69;5057991;28;20577;-45
2022/04/07 07:05:16;;;;;;;20.93;19.53;;;;;;;8.24;99.46;97826.91;5057724;28;20550;-43
2022/04/07 07:07:45;;;;;;;19.90;18.67;;;;;;;8.22;99.00;97824.50;5058227;28;20423;-43
2022/04/07 07:10:21;;;;;;;19.73;18.50;;;;;;;8.22;98.96;97821.84;5057729;28;20560;-43
2022/04/07 07:12:49;;;;;;;20.90;19.30;;;;;;;8.27;98.79;97827.22;5058188;28;20903;-41
2022/04/07 07:15:17;;;;;;;20.53;19.60;;;;;;;8.34;99.26;97827.81;5057396;28;20458;-41
2022/04/07 07:17:45;;;;;;;19.10;17.80;;;;;;;8.41;100.00;97832.13;5058224;28;20431;-42
2022/04/07 07:20:13;;;;;;;18.63;16.83;;;;;;;8.43;100.00;97830.81;5057851;28;20529;-41
2022/04/07 07:22:41;;;;;;;16.60;15.67;;;;;;;8.42;100.00;97839.03;5057985;28;20451;-43
2022/04/07 07:25:12;;;;;;;14.27;13.07;;;;;;;8.29;100.00;97835.75;5057485;28;20469;-42
2022/04/07 07:27:41;;;;;;;15.80;15.00;;;;;;;8.33;100.00;97828.88;5057743;28;20427;-41
2022/04/07 07:30:10;;;;;;;17.73;16.40;;;;;;;8.36;100.00;97832.09;5057979;28;20427;-42
2022/04/07 07:32:38;;;;;;;18.03;17.03;;;;;;;8.32;100.00;97832.59;5057647;28;20992;-41
2022/04/07 07:35:07;;;;;;;16.97;16.27;;;;;;;8.17;100.00;97834.28;5057435;28;20459;-43
2022/04/07 07:37:34;;;;;;;16.13;15.43;;;;;;;7.92;100.00;97847.28;5057870;28;20868;-44
2022/04/07 07:40:04;;;;;;;16.73;15.13;;;;;;;7.67;100.00;97847.81;5057735;28;20439;-42
2022/04/07 07:42:36;;;;;;;14.87;14.30;;;;;;;7.15;100.00;97850.06;5057749;28;20458;-41
2022/04/07 07:45:04;;;;;;;14.70;14.20;;;;;;;6.92;100.00;97834.38;5055407;28;20463;-42
2022/04/07 07:47:32;;;;;;;16.33;15.53;;;;;;;6.80;100.00;97837.13;5049223;28;20922;-41
2022/04/07 07:50:00;;;;;;;17.27;16.67;;;;;;;6.74;100.00;97843.41;5057648;28;20435;-41
2022/04/07 07:52:28;;;;;;;17.03;16.23;;;;;;;6.72;100.00;97834.09;5057185;28;20478;-41
2022/04/07 07:54:55;;;;;;;17.20;16.40;;;;;;;6.62;98.83;97832.91;5057102;28;20550;-42
2022/04/07 07:57:23;;;;;;;16.90;15.90;;;;;;;6.48;98.40;97850.13;5057861;28;20431;-42
2022/04/07 07:59:52;;;;;;;17.30;16.70;;;;;;;6.31;97.84;97844.03;5057779;28;20430;-41
2022/04/07 08:02:20;;;;;;;17.43;16.40;;;;;;;6.20;96.84;97847.56;5055011;28;20840;-43
2022/04/07 08:04:47;;;;;;;17.50;16.70;;;;;;;6.16;97.26;97838.47;5053928;28;20806;-42
2022/04/07 08:07:15;;;;;;;16.87;16.17;;;;;;;6.11;97.25;97841.84;5054250;28;20438;-45
2022/04/07 08:09:43;;;;;;;17.30;16.40;;;;;;;6.06;97.83;97840.97;5054507;28;20438;-41
2022/04/07 08:12:11;;;;;;;16.40;15.73;;;;;;;6.02;98.38;97843.28;5054088;28;20502;-42
2022/04/07 08:14:39;;;;;;;16.30;15.47;;;;;;;5.96;99.04;97824.91;5053979;28;20768;-41
2022/04/07 08:17:08;;;;;;;15.70;15.10;;;;;;;5.92;98.94;97819.28;5054090;28;20431;-43
2022/04/07 08:19:40;;;;;;;15.80;15.07;;;;;;;5.93;98.55;97812.16;5053986;28;20539;-43
2022/04/07 08:22:08;;;;;;;16.40;15.57;;;;;;;5.84;98.73;97827.56;5053995;28;20443;-41
2022/04/07 08:24:35;;;;;;;16.40;15.80;;;;;;;5.87;97.82;97813.91;5053751;28;20476;-42
2022/04/07 08:27:05;;;;;;;16.37;15.20;;;;;;;5.91;97.87;97809.72;5054169;28;20442;-41
2022/04/07 08:29:33;;;;;;;14.97;13.97;;;;;;;5.93;98.82;97820.09;5053990;28;20434;-41
2022/04/07 08:32:01;;;;;;;15.57;14.30;;;;;;;5.91;98.91;97809.72;5053556;28;20501;-41
2022/04/07 08:34:30;;;;;;;14.70;14.00;;;;;;;5.90;99.16;97810.78;5053302;28;20459;-41
2022/04/07 08:36:58;;;;;;;15.03;14.03;;;;;;;5.91;99.64;97811.59;5054050;28;20436;-41
2022/04/07 08:39:25;;;;;;;15.10;14.10;;;;;;;5.94;99.15;97789.97;5053904;28;20469;-41
2022/04/07 08:41:53;;;;;;;14.83;14.10;;;;;;;5.95;99.11;97784.41;5053464;28;20459;-41
2022/04/07 08:44:23;;;;;;;14.83;13.83;;;;;;;5.98;99.79;97770.72;5053727;28;20530;-41
2022/04/07 08:46:53;;;;;;;15.60;14.50;;;;;;;6.02;99.65;97757.81;5042658;28;20468;-42
2022/04/07 08:49:22;;;;;;;13.73;12.90;;;;;;;5.99;99.72;97753.00;5053774;28;20427;-41
2022/04/07 08:51:53;;;;;;;13.43;12.70;;;;;;;6.03;100.00;97740.91;5053139;28;20478;-41
2022/04/07 08:54:22;;;;;;;13.37;12.33;;;;;;;6.06;99.82;97741.22;5053599;28;20431;-42
2022/04/07 08:56:50;;;;;;;12.87;12.27;;;;;;;6.17;99.82;97739.53;5052994;28;20822;-41
2022/04/07 08:59:18;;;;;;;12.07;11.77;;;;;;;6.19;100.00;97739.28;5053095;28;20438;-43
2022/04/07 09:01:46;;;;;;;11.73;11.30;;;;;;;6.21;100.00;97743.31;5053277;28;20479;-41
2022/04/07 09:04:14;;;;;;;12.13;11.63;;;;;;;6.25;100.00;97743.63;5053313;28;20435;-41
2022/04/07 09:06:43;;;;;;;12.83;12.23;;;;;;;6.27;100.00;97742.38;5052753;28;20459;-42
2022/04/07 09:09:16;;;;;;;11.70;11.30;;;;;;;6.16;100.00;97742.41;5053322;28;20843;-42
2022/04/07 09:11:44;;;;;;;11.73;11.13;;;;;;;6.21;100.00;97748.63;5052666;28;20475;-43
2022/04/07 09:14:13;;;;;;;11.63;11.13;;;;;;;6.19;100.00;97749.88;5052795;28;20438;-41
2022/04/07 09:16:41;;;;;;;11.53;11.13;;;;;;;6.22;100.00;97739.63;5052575;28;20546;-41
2022/04/07 09:19:09;;;;;;;12.00;11.17;;;;;;;6.32;100.00;97731.03;5053191;28;20806;-42
2022/04/07 09:21:37;;;;;;;11.50;11.13;;;;;;;6.33;100.00;97714.91;5052716;28;20447;-41
2022/04/07 09:24:07;;;;;;;10.83;10.43;;;;;;;6.36;100.00;97705.69;5052882;28;20431;-45
2022/04/07 09:26:39;;;;;;;11.13;10.40;;;;;;;6.43;100.00;97690.44;5052310;28;20858;-41
2022/04/07 09:29:09;;;;;;;11.33;10.87;;;;;;;6.50;100.00;97699.00;5053022;28;20465;-42
2022/04/07 09:31:39;;;;;;;11.40;10.90;;;;;;;6.56;100.00;97692.75;5052425;28;20969;-41
2022/04/07 09:34:08;;;;;;;12.50;11.90;;;;;;;6.56;100.00;97682.97;5052821;28;20436;-43
2022/04/07 09:36:36;;;;;;;11.63;11.00;;;;;;;6.59;100.00;97694.91;5052240;28;20459;-42
2022/04/07 09:39:09;;;;;;;11.80;11.23;;;;;;;6.60;100.00;97704.44;5052884;28;20490;-44
2022/04/07 09:41:38;;;;;;;12.37;11.97;;;;;;;6.59;100.00;97708.94;5052456;28;20451;-41
2022/04/07 09:44:06;;;;;;;13.27;12.10;;;;;;;6.53;100.00;97709.13;5052640;28;20431;-43
2022/04/07 09:46:38;;;;;;;12.80;12.07;;;;;;;6.59;100.00;97687.75;5042827;28;20466;-41
2022/04/07 09:49:08;;;;;;;12.10;11.60;;;;;;;6.68;100.00;97682.84;5052272;28;20483;-41
2022/04/07 09:51:40;;;;;;;12.13;11.73;;;;;;;6.72;100.00;97678.63;5051776;28;20482;-42
2022/04/07 09:54:10;;;;;;;13.70;13.13;;;;;;;6.73;100.00;97682.09;5052339;28;20439;-41
2022/04/07 09:56:40;;;;;;;13.60;12.90;;;;;;;6.79;100.00;97671.31;5052018;28;20459;-40
2022/04/07 09:59:08;;;;;;;14.00;13.10;;;;;;;6.73;100.00;97682.88;5052420;28;20419;-42
2022/04/07 10:01:38;;;;;;;13.43;12.70;;;;;;;6.76;100.00;97684.25;5052021;28;20494;-42
2022/04/07 10:04:07;;;;;;;12.10;11.40;;;;;;;6.78;100.00;97675.00;5052265;28;20555;-42
2022/04/07 10:06:35;;;;;;;12.60;11.80;;;;;;;6.80;100.00;97678.22;5051635;28;20819;-42
2022/04/07 10:09:06;;;;;;;13.40;12.33;;;;;;;6.81;100.00;97682.47;5052231;28;20457;-41
2022/04/07 10:11:34;;;;;;;13.03;12.43;;;;;;;6.85;100.00;97670.31;5051665;28;20455;-44
2022/04/07 10:14:04;;;;;;;14.23;13.20;;;;;;;6.91;100.00;97650.81;5051969;28;20956;-41
2022/04/07 10:16:47;;;;;;;13.43;12.73;;;;;;;7.17;100.00;97651.88;5051431;28;20520;-45
2022/04/07 10:19:20;;;;;;;14.13;12.90;;;;;;;7.50;100.00;97654.31;5052105;28;20474;-42
2022/04/07 10:22:01;;;;;;;13.70;12.83;;;;;;;7.75;100.00;97653.75;5051767;28;20534;-41
2022/04/07 10:24:33;;;;;;;13.63;12.10;;;;;;;8.06;100.00;97652.13;5050680;28;20431;-41
2022/04/07 10:27:25;;;;;;;12.00;11.10;;;;;;;8.28;99.79;97653.63;5051949;28;20438;-45
2022/04/07 10:30:06;;;;;;;11.70;11.00;;;;;;;8.49;97.64;97637.78;5051952;28;20522;-41
2022/04/07 10:32:39;;;;;;;12.00;11.10;;;;;;;8.69;96.66;97643.22;5051429;28;20565;-41
2022/04/07 10:35:08;;;;;;;12.10;11.40;;;;;;;8.93;96.84;97620.44;5051123;28;20474;-41
2022/04/07 10:37:44;;;;;;;12.03;11.00;;;;;;;8.92;94.71;97613.53;5051807;28;20434;-44
2022/04/07 10:40:34;;;;;;;12.07;11.17;;;;;;;8.85;93.46;97621.75;5051624;28;20470;-41
2022/04/07 10:43:13;;;;;;;11.60;10.80;;;;;;;8.83;93.31;97617.75;5051624;28;20422;-42
2022/04/07 10:45:45;;;;;;;11.57;10.77;;;;;;;8.77;93.56;97619.59;5048974;28;21012;-41
2022/04/07 10:48:21;;;;;;;10.57;10.10;;;;;;;8.71;93.12;97623.31;5039290;28;20428;-41
2022/04/07 10:50:50;;;;;;;12.23;11.43;;;;;;;8.68;93.19;97604.41;5031407;28;20463;-41
2022/04/07 10:53:22;;;;;;;11.17;10.57;;;;;;;8.63;93.08;97599.09;5031541;28;20471;-42
2022/04/07 10:56:00;;;;;;;14.50;11.17;;;;;;;8.62;93.67;97616.09;5031047;28;20840;-42
2022/04/07 10:58:46;;;;;;;11.57;10.97;;;;;;;8.60;93.31;97595.06;5031781;28;20432;-41
2022/04/07 11:01:37;;;;;;;11.50;10.80;;;;;;;8.70;93.58;97603.09;5031273;28;20455;-41
2022/04/07 11:04:32;;;;;;;11.13;10.30;;;;;;;8.72;92.42;97597.53;5031488;28;20428;-41
2022/04/07 11:07:14;;;;;;;11.13;10.23;;;;;;;8.74;91.94;97598.06;5031472;28;20455;-41
2022/04/07 11:09:43;;;;;;;10.43;9.80;;;;;;;8.99;91.42;97590.16;5031596;28;20439;-42
2022/04/07 11:12:12;;;;;;;11.53;10.73;;;;;;;9.08;90.80;97587.81;5031087;28;20448;-41
2022/04/07 11:14:40;;;;;;;11.07;10.30;;;;;;;9.03;89.85;97587.78;5030757;28;20440;-43
2022/04/07 11:17:10;;;;;;;10.70;10.20;;;;;;;9.21;90.93;97577.44;5031642;28;20769;-41
2022/04/07 11:19:50;;;;;;;11.37;10.53;;;;;;;9.25;90.37;97569.75;5031532;28;20979;-44
2022/04/07 11:22:22;;;;;;;10.20;9.70;;;;;;;9.33;90.04;97570.00;5031173;28;20669;-41
2022/04/07 11:24:55;;;;;;;11.50;10.40;;;;;;;9.38;88.72;97569.19;5030864;28;20499;-41
2022/04/07 11:27:36;;;;;;;10.73;10.00;;;;;;;9.65;89.62;97561.75;5031233;28;20442;-42
2022/04/07 11:30:06;;;;;;;11.03;10.47;;;;;;;9.74;87.28;97565.47;5031285;28;20436;-41
2022/04/07 11:32:33;;;;;;;11.03;10.10;;;;;;;9.86;84.88;97559.84;5030891;28;20488;-41